Spirit River, Canada
Current Conditions -  °F | °C
As of 3:00 AM on Saturday 22 Nov 2014 (Local Time) from CYQU Reporting Station
Light Snow Light Snow  
Wind Chill: 17°   Ceiling: 600
Heat Index: 28°   Visibility: 2mi
Dew Point: 27°   Wind: 14mph
Humidity: 93%   Direction: 30°NNE
Pressure: 29.15"   Gusts: NA
Location:  55.78°N, 118.83°W
Report Text: CYQU 221000Z 03012KT 2SM -SN BKN006 OVC012 M02/M03 A2915 RMK SC5SC3 SLP901
Loading
Personal Weather Stations






























Interactive Weather Map New forecast layout! Learn more

10-Day Weather Forecast

Advertisements
Track Severe Weather on mobile